Weather reports worldwide

Advertisment
S. Valentino Alla Muta, Italy (16008): temperature & dewpoint: 15.01.2018 04:00:00 - 21.01.2018 04:00:00 (CET)S. Valentino Alla Muta, Italy (16008): wind speed: 15.01.2018 04:00:00 - 21.01.2018 04:00:00 (CET)S. Valentino Alla Muta, Italy (16008): wind direction: 15.01.2018 04:00:00 - 21.01.2018 04:00:00 (CET)S. Valentino Alla Muta, Italy (16008): visibility: 15.01.2018 04:00:00 - 21.01.2018 04:00:00 (CET)
Date & Time tt [°C] td [°C] ff [km/h] ff [kn] dd vv [km]
21.01.2018 04:00:00 - - - - - -
21.01.2018 03:00:00 -5,0 -5,3 8 4 SSW 0,2
21.01.2018 02:00:00 -5,2 -5,5 8 4 S 0,2
21.01.2018 01:00:00 -5,4 -5,8 4 2 SSW 0,1
21.01.2018 00:00:00 -5,4 -30,0 9 5 S 0,2
20.01.2018 23:00:00 -5,6 -5,9 11 6 S 0,4
20.01.2018 22:00:00 -5,6 -6,0 15 8 SSE 0,2
20.01.2018 21:00:00 -5,6 -6,1 8 4 SSW 0,7
20.01.2018 20:00:00 -5,0 -6,2 16 9 S 0,7
20.01.2018 19:00:00 -3,8 -8,8 15 8 SSE 1,0
20.01.2018 18:00:00 -3,2 -12,1 13 7 S 2,0
20.01.2018 17:00:00 -2,4 -13,3 15 8 SSE 10
20.01.2018 16:00:00 -1,0 -12,9 8 4 SW 14
20.01.2018 15:00:00 0,0 -13,3 8 4 N 14
20.01.2018 14:00:00 0,2 -11,8 9 5 NNE 15
20.01.2018 13:00:00 -1,4 -11,5 9 5 N 15
20.01.2018 12:00:00 -2,0 -11,0 9 5 NNE 15
20.01.2018 11:00:00 -3,0 -10,5 9 5 NNE 15
20.01.2018 10:00:00 -7,0 -10,2 4 2 NNE 15
20.01.2018 09:00:00 -8,2 -10,6 0 0 N 20
20.01.2018 08:00:00 -8,2 -10,6 5 3 NNE 20
20.01.2018 07:00:00 -7,6 -9,8 0 0 N 10
20.01.2018 06:00:00 -5,6 -7,0 5 3 NNE 4,0
20.01.2018 05:00:00 -5,6 -6,7 5 3 NNE 4,0
20.01.2018 04:00:00 -5,6 -7,3 5 3 N 4,0
20.01.2018 03:00:00 -5,4 -6,8 5 3 N 4,0
20.01.2018 02:00:00 -5,4 -6,3 8 4 NNE 4,0
20.01.2018 01:00:00 -5,6 -6,8 8 4 NNE 8
20.01.2018 00:00:00 -5,6 -7,9 5 3 N 10
19.01.2018 23:00:00 -5,8 -8,8 5 3 N 10
19.01.2018 22:00:00 -6,2 -9,7 8 4 NNE 10
19.01.2018 21:00:00 -6,0 -9,9 5 3 NNE 12
19.01.2018 20:00:00 -4,4 -8,8 5 3 NNE 12
19.01.2018 19:00:00 -2,8 -8,1 5 3 N 12
19.01.2018 18:00:00 -2,2 -8,3 0 0 N 12
19.01.2018 17:00:00 -1,4 -10,0 5 3 N 14
19.01.2018 16:00:00 -0,6 -10,5 8 4 N 16
19.01.2018 15:00:00 -0,2 -11,3 0 0 N 14
19.01.2018 14:00:00 0,0 -9,4 5 3 NE 14
19.01.2018 13:00:00 0,0 -8,9 13 7 N 8
19.01.2018 12:00:00 -0,2 -8,6 11 6 NNE 7
19.01.2018 11:00:00 0,0 -5,2 15 8 N 6
19.01.2018 10:00:00 -0,6 -2,6 11 6 NNE 6
19.01.2018 09:00:00 -0,4 -1,1 13 7 NE 1,4
19.01.2018 08:00:00 -0,2 -1,9 9 5 NNE 4,5
19.01.2018 07:00:00 -1,0 -2,9 8 4 NE 7
19.01.2018 06:00:00 -4,0 -5,7 13 7 NNE 7
19.01.2018 05:00:00 -4,0 -5,7 15 8 NNE 7
19.01.2018 04:00:00 -4,6 -6,3 4 2 E 6
19.01.2018 03:00:00 -4,6 -6,3 8 4 NNE 6
19.01.2018 02:00:00 -4,4 -6,1 4 2 WSW 6
19.01.2018 01:00:00 -4,2 -6,2 4 2 E 8
19.01.2018 00:00:00 -4,0 -5,4 8 4 WSW 8
18.01.2018 23:00:00 -4,0 -5,4 4 2 N 5
18.01.2018 22:00:00 -4,0 -5,4 4 2 N 5
18.01.2018 21:00:00 -4,0 -5,4 9 5 NNE 6
18.01.2018 20:00:00 -4,0 -5,4 4 2 N 8
18.01.2018 19:00:00 -4,8 -5,1 4 2 E 7
18.01.2018 18:00:00 -4,6 -4,7 5 3 W 0,4
18.01.2018 17:00:00 -4,2 -4,3 8 4 SSW 0,1
18.01.2018 16:00:00 -2,0 -4,2 13 7 W 0,9
18.01.2018 15:00:00 -2,0 -3,7 9 5 N 8
18.01.2018 14:00:00 -3,0 -4,4 13 7 NNE 5
18.01.2018 13:00:00 -3,6 -4,1 11 6 NNE 4,0
18.01.2018 12:00:00 -4,0 -4,5 11 6 NNE 1,0
18.01.2018 11:00:00 -4,0 -4,3 4 2 N 1,4
18.01.2018 10:00:00 -4,8 -5,1 8 4 N 1,4
18.01.2018 09:00:00 -5,6 -6,1 4 2 NNE 1,6
18.01.2018 08:00:00 -6,0 -7,0 0 0 N 4,0
18.01.2018 07:00:00 -6,0 -7,0 0 0 N 4,0
18.01.2018 06:00:00 -6,0 -7,2 8 4 N 4,0
18.01.2018 05:00:00 -6,0 -7,2 5 3 N 4,0
18.01.2018 04:00:00 -6,0 -7,5 0 0 N 5
18.01.2018 03:00:00 -6,0 -7,7 0 0 N 5
18.01.2018 02:00:00 -5,8 -8,1 5 3 NNW 6
18.01.2018 01:00:00 -6,0 -8,0 0 0 N 5
18.01.2018 00:00:00 -6,0 -7,5 9 5 NNE 2,0
17.01.2018 23:00:00 -6,2 -7,0 8 4 NNE 2,0
17.01.2018 22:00:00 -6,4 -7,5 8 4 NNE 2,0
17.01.2018 21:00:00 -6,6 -7,8 5 3 N 2,0
17.01.2018 20:00:00 -6,6 -8,0 8 4 NNE 2,0
17.01.2018 19:00:00 -6,8 -8,2 5 3 NE 2,0
17.01.2018 18:00:00 -6,8 -8,3 8 4 NNE 2,0
17.01.2018 17:00:00 -6,0 -9,7 16 9 N 2,0
17.01.2018 16:00:00 -5,6 -10,7 13 7 N 5
17.01.2018 15:00:00 -5,6 -11,9 13 7 N 8
17.01.2018 14:00:00 -5,2 -8,9 9 5 NNE 8
17.01.2018 13:00:00 -4,8 -10,2 15 8 NNE 2,0
17.01.2018 12:00:00 -4,6 -8,3 5 3 NNE 3,0
17.01.2018 11:00:00 -4,8 -6,9 0 0 N 3,0
17.01.2018 10:00:00 -4,2 -8,0 13 7 NNE 1,5
17.01.2018 09:00:00 -3,8 -5,6 13 7 NNE 1,4
17.01.2018 08:00:00 -3,4 -5,4 11 6 N 6
17.01.2018 07:00:00 -2,4 -2,7 15 8 NNE 0,5
17.01.2018 06:00:00 -0,8 -5,6 8 4 NNE 8
17.01.2018 05:00:00 -1,4 -2,0 15 8 NNW 4,5
17.01.2018 04:00:00 -1,4 -2,1 9 5 NNE 4,5
17.01.2018 03:00:00 -1,2 -2,0 11 6 N 3,0
17.01.2018 02:00:00 -1,4 -2,5 11 6 N 4,0
17.01.2018 01:00:00 -2,0 -3,1 15 8 NNE 8
17.01.2018 00:00:00 -3,6 -4,4 11 6 N 8
16.01.2018 23:00:00 -4,0 -4,3 13 7 NNE 4,5
16.01.2018 22:00:00 -4,0 -4,5 8 4 S 3,5
16.01.2018 21:00:00 -3,4 -4,2 4 2 S 3,5
16.01.2018 20:00:00 -3,4 -4,8 15 8 S 9
16.01.2018 19:00:00 -3,8 -4,9 8 4 NNE 7
16.01.2018 18:00:00 -3,8 -4,8 4 2 NNE 5
16.01.2018 17:00:00 -3,4 -4,2 5 3 NNW 2,0
16.01.2018 16:00:00 -3,0 -4,7 8 4 WSW 2,5
16.01.2018 15:00:00 -2,8 -4,7 8 4 WSW 8
16.01.2018 14:00:00 -2,8 -4,8 11 6 WSW 3,0
16.01.2018 13:00:00 -4,2 -5,0 4 2 SSW 1,6
16.01.2018 12:00:00 -4,8 -5,6 4 2 S 1,0
16.01.2018 11:00:00 -5,0 -5,8 9 5 SW 1,0
16.01.2018 10:00:00 -5,4 -6,2 8 4 WSW 2,5
16.01.2018 09:00:00 -6,2 -7,0 4 2 N 6
16.01.2018 08:00:00 -7,0 -7,9 4 2 N 6
16.01.2018 07:00:00 -7,0 -8,2 9 5 N 4,0
16.01.2018 06:00:00 -5,6 -6,3 5 3 SSW 4,0
16.01.2018 05:00:00 -5,8 -6,5 8 4 S 4,0
16.01.2018 04:00:00 -5,6 -5,7 8 4 SSW 4,0
16.01.2018 03:00:00 -5,6 -5,6 9 5 S 4,0
16.01.2018 02:00:00 -5,4 -5,4 8 4 S 4,0
16.01.2018 01:00:00 -5,4 -5,4 9 5 S 4,0
16.01.2018 00:00:00 -5,2 -6,4 9 5 S 4,0
15.01.2018 23:00:00 -5,2 -6,4 8 4 SW 4,0
15.01.2018 22:00:00 -5,2 -7,3 11 6 S 10
15.01.2018 21:00:00 -5,2 -7,5 11 6 S 10
15.01.2018 20:00:00 -5,0 -7,7 13 7 S 10
15.01.2018 19:00:00 -5,0 -7,9 13 7 SSE 10
15.01.2018 18:00:00 -4,8 -8,0 8 4 SW 10
15.01.2018 17:00:00 -4,2 -8,3 9 5 SSW 20
15.01.2018 16:00:00 -4,2 -10,0 13 7 SSW 20
15.01.2018 15:00:00 -2,8 -9,3 9 5 SW 20
15.01.2018 14:00:00 -2,2 -12,0 13 7 SW 20
15.01.2018 13:00:00 -1,4 -13,0 9 5 SSW 20
15.01.2018 12:00:00 -2,4 -11,6 8 4 NNE 20
15.01.2018 11:00:00 -7,4 -11,7 11 6 NNE 20
15.01.2018 10:00:00 -9,8 -13,5 11 6 NNE 20
15.01.2018 09:00:00 -10,0 -13,4 9 5 NNE 10
15.01.2018 08:00:00 -10,0 -13,3 9 5 NNE 20
15.01.2018 07:00:00 -9,8 -13,1 8 4 NNE 10
15.01.2018 06:00:00 -10,4 -12,9 8 4 NNE 10
15.01.2018 05:00:00 -10,2 -12,5 8 4 N 10
15.01.2018 04:00:00 -10,0 -12,0 8 4 N 10

tt = temperature
td = dewpoint
ff = wind speed
dd = wind direction
vv = visibility

Next stations